This is the latest recevied weather packets stored in our database for station/object N3DOU-1. If no packets are shown the sender has not sent any weather packets the latest 10 day(s).
| Time | Temp. | Humidity | Pressure | Rain* | Wind** | Luminosity | Snow |
|---|---|---|---|---|---|---|---|
| 1777601484 | 12.22° C | 65% | 1013 hPa | 0 mm | - | - | - |
| 1777600583 | 12.78° C | 63% | 1012.9 hPa | 0 mm | - | - | - |
| 1777599683 | 12.78° C | 62% | 1012.6 hPa | 0 mm | - | - | - |
| 1777596086 | 14.44° C | 64% | 1011.2 hPa | 0 mm | - | - | - |
| 1777595184 | 14.44° C | 61% | 1011 hPa | 0 mm | - | - | - |
| 1777594283 | 15° C | 60% | 1010.6 hPa | 0 mm | - | - | - |
| 1777593384 | 15.56° C | 60% | 1010.2 hPa | 0 mm | - | - | - |
| 1777592482 | 16.11° C | 61% | 1009.8 hPa | 0 mm | - | - | - |
| 1777591582 | 16.67° C | 58% | 1009.6 hPa | 0 mm | - | - | - |
| 1777590684 | 16.67° C | 58% | 1009.3 hPa | 0 mm | - | - | - |
| 1777589782 | 17.22° C | 57% | 1009.1 hPa | 0 mm | - | - | - |
| 1777587983 | 18.33° C | 47% | 1008.4 hPa | 0 mm | - | - | - |
| 1777587087 | 18.89° C | 48% | 1008.2 hPa | 0 mm | - | - | - |
| 1777585283 | 20° C | 45% | 1007.9 hPa | 0 mm | - | - | - |
| 1777584383 | 20.56° C | 41% | 1007.8 hPa | 0 mm | - | - | - |
| 1777583484 | 20.56° C | 45% | 1007.7 hPa | 0 mm | - | - | - |
| 1777582584 | 19.44° C | 46% | 1007.5 hPa | 0 mm | - | - | - |
| 1777580784 | 19.44° C | 48% | 1007.2 hPa | 0 mm | - | - | - |
| 1777579889 | 20° C | 50% | 1007.2 hPa | 0 mm | - | - | - |
| 1777578985 | 20.56° C | 50% | 1007.1 hPa | 0 mm | - | - | - |
| 1777578084 | 20° C | 48% | 1007 hPa | 0 mm | - | - | - |
| 1777577190 | 20.56° C | 49% | 1007 hPa | 0 mm | - | - | - |
| 1777576285 | 20° C | 50% | 1007.3 hPa | 0 mm | - | - | - |
| 1777575390 | 20° C | 50% | 1007 hPa | 0 mm | - | - | - |
| 1777574485 | 18.89° C | 57% | 1007.3 hPa | 0 mm | - | - | - |
* Rain latest hour (hover to see other rain measurements)
** Current wind speed in m/s (hover to see current wind gust speed)